METAR Data
IDs: Format: Raw Decoded Include TAF

Data at: 2208 UTC 01 Dec 2021

KMSP 012153Z 22007KT 10SM SCT190 BKN250 11/03 A2957 RMK AO2 SLP018 T01060033